sensor_id;sensor_type;location;lat;lon;timestamp;P1;durP1;ratioP1;P2;durP2;ratioP2
15049;SDS011;7622;42.724;23.250;2023-04-29T00:00:42;12.83;;;8.77;;
15049;SDS011;7622;42.724;23.250;2023-04-29T00:03:09;13.57;;;8.57;;
15049;SDS011;7622;42.724;23.250;2023-04-29T00:05:36;8.80;;;7.77;;
15049;SDS011;7622;42.724;23.250;2023-04-29T00:08:03;14.53;;;8.80;;
15049;SDS011;7622;42.724;23.250;2023-04-29T00:10:30;10.90;;;7.40;;
15049;SDS011;7622;42.724;23.250;2023-04-29T00:12:57;9.07;;;6.83;;
15049;SDS011;7622;42.724;23.250;2023-04-29T00:15:25;11.17;;;7.13;;
15049;SDS011;7622;42.724;23.250;2023-04-29T00:17:52;9.53;;;7.83;;
15049;SDS011;7622;42.724;23.250;2023-04-29T00:20:19;11.13;;;8.30;;
15049;SDS011;7622;42.724;23.250;2023-04-29T00:22:46;12.70;;;7.00;;
15049;SDS011;7622;42.724;23.250;2023-04-29T00:25:13;9.40;;;7.53;;
15049;SDS011;7622;42.724;23.250;2023-04-29T00:27:41;11.17;;;7.30;;
15049;SDS011;7622;42.724;23.250;2023-04-29T00:30:08;9.23;;;7.07;;
15049;SDS011;7622;42.724;23.250;2023-04-29T00:32:36;6.00;;;5.07;;
15049;SDS011;7622;42.724;23.250;2023-04-29T00:35:03;7.43;;;5.13;;
15049;SDS011;7622;42.724;23.250;2023-04-29T00:37:31;8.17;;;6.40;;
15049;SDS011;7622;42.724;23.250;2023-04-29T00:39:58;9.13;;;6.00;;
15049;SDS011;7622;42.724;23.250;2023-04-29T00:42:25;7.63;;;5.80;;
15049;SDS011;7622;42.724;23.250;2023-04-29T00:44:53;9.53;;;5.70;;
15049;SDS011;7622;42.724;23.250;2023-04-29T00:47:19;6.73;;;5.53;;
15049;SDS011;7622;42.724;23.250;2023-04-29T00:49:48;8.53;;;6.00;;
15049;SDS011;7622;42.724;23.250;2023-04-29T00:52:15;6.73;;;6.03;;
15049;SDS011;7622;42.724;23.250;2023-04-29T00:54:42;7.23;;;5.23;;
15049;SDS011;7622;42.724;23.250;2023-04-29T00:57:09;7.17;;;5.20;;
15049;SDS011;7622;42.724;23.250;2023-04-29T00:59:36;7.70;;;6.13;;
15049;SDS011;7622;42.724;23.250;2023-04-29T01:02:03;10.23;;;6.20;;
15049;SDS011;7622;42.724;23.250;2023-04-29T01:04:30;8.73;;;5.97;;
15049;SDS011;7622;42.724;23.250;2023-04-29T01:07:00;7.00;;;5.40;;
15049;SDS011;7622;42.724;23.250;2023-04-29T01:09:44;7.50;;;5.73;;
15049;SDS011;7622;42.724;23.250;2023-04-29T01:12:19;5.97;;;5.30;;
15049;SDS011;7622;42.724;23.250;2023-04-29T01:14:53;10.93;;;5.80;;
15049;SDS011;7622;42.724;23.250;2023-04-29T01:17:30;8.53;;;6.20;;
15049;SDS011;7622;42.724;23.250;2023-04-29T01:20:01;8.83;;;6.50;;
15049;SDS011;7622;42.724;23.250;2023-04-29T01:22:32;8.50;;;5.87;;
15049;SDS011;7622;42.724;23.250;2023-04-29T01:25:00;7.53;;;6.77;;
15049;SDS011;7622;42.724;23.250;2023-04-29T01:27:28;8.37;;;6.10;;
15049;SDS011;7622;42.724;23.250;2023-04-29T01:29:59;9.00;;;5.97;;
15049;SDS011;7622;42.724;23.250;2023-04-29T01:32:42;6.93;;;6.20;;
15049;SDS011;7622;42.724;23.250;2023-04-29T01:35:21;11.40;;;7.00;;
15049;SDS011;7622;42.724;23.250;2023-04-29T01:38:04;8.53;;;6.40;;
15049;SDS011;7622;42.724;23.250;2023-04-29T01:40:42;12.60;;;6.10;;
15049;SDS011;7622;42.724;23.250;2023-04-29T01:43:18;11.67;;;6.73;;
15049;SDS011;7622;42.724;23.250;2023-04-29T01:45:49;8.03;;;6.80;;
15049;SDS011;7622;42.724;23.250;2023-04-29T01:48:20;12.03;;;6.97;;
15049;SDS011;7622;42.724;23.250;2023-04-29T01:50:47;7.43;;;6.30;;
15049;SDS011;7622;42.724;23.250;2023-04-29T01:53:14;9.50;;;7.20;;
15049;SDS011;7622;42.724;23.250;2023-04-29T01:55:42;8.33;;;6.80;;
15049;SDS011;7622;42.724;23.250;2023-04-29T01:58:09;13.60;;;8.03;;
15049;SDS011;7622;42.724;23.250;2023-04-29T02:00:36;11.03;;;7.27;;
15049;SDS011;7622;42.724;23.250;2023-04-29T02:03:03;11.30;;;7.67;;
15049;SDS011;7622;42.724;23.250;2023-04-29T02:05:30;9.90;;;7.40;;
15049;SDS011;7622;42.724;23.250;2023-04-29T02:07:58;13.03;;;7.80;;
15049;SDS011;7622;42.724;23.250;2023-04-29T02:10:25;11.40;;;7.40;;
15049;SDS011;7622;42.724;23.250;2023-04-29T02:12:53;8.13;;;7.20;;
15049;SDS011;7622;42.724;23.250;2023-04-29T02:15:20;11.60;;;7.50;;
15049;SDS011;7622;42.724;23.250;2023-04-29T02:17:46;12.23;;;7.77;;
15049;SDS011;7622;42.724;23.250;2023-04-29T02:20:13;10.23;;;7.67;;
15049;SDS011;7622;42.724;23.250;2023-04-29T02:22:40;9.97;;;6.40;;
15049;SDS011;7622;42.724;23.250;2023-04-29T02:25:07;10.57;;;6.63;;
15049;SDS011;7622;42.724;23.250;2023-04-29T02:27:35;8.40;;;6.53;;
15049;SDS011;7622;42.724;23.250;2023-04-29T02:30:03;8.80;;;6.40;;
15049;SDS011;7622;42.724;23.250;2023-04-29T02:32:31;11.93;;;7.13;;
15049;SDS011;7622;42.724;23.250;2023-04-29T02:34:58;9.47;;;6.53;;
15049;SDS011;7622;42.724;23.250;2023-04-29T02:37:25;10.60;;;6.07;;
15049;SDS011;7622;42.724;23.250;2023-04-29T02:39:52;6.60;;;6.00;;
15049;SDS011;7622;42.724;23.250;2023-04-29T02:42:19;9.33;;;7.00;;
15049;SDS011;7622;42.724;23.250;2023-04-29T02:44:45;8.73;;;5.97;;
15049;SDS011;7622;42.724;23.250;2023-04-29T02:47:13;10.20;;;6.13;;
15049;SDS011;7622;42.724;23.250;2023-04-29T02:49:40;8.90;;;6.07;;
15049;SDS011;7622;42.724;23.250;2023-04-29T02:52:07;10.40;;;6.80;;
15049;SDS011;7622;42.724;23.250;2023-04-29T02:54:34;7.87;;;5.67;;
15049;SDS011;7622;42.724;23.250;2023-04-29T02:57:02;7.53;;;6.10;;
15049;SDS011;7622;42.724;23.250;2023-04-29T02:59:29;8.60;;;6.30;;
15049;SDS011;7622;42.724;23.250;2023-04-29T03:01:55;7.67;;;5.90;;
15049;SDS011;7622;42.724;23.250;2023-04-29T03:04:23;8.80;;;6.17;;
15049;SDS011;7622;42.724;23.250;2023-04-29T03:06:50;9.37;;;5.67;;
15049;SDS011;7622;42.724;23.250;2023-04-29T03:09:17;8.33;;;5.90;;
15049;SDS011;7622;42.724;23.250;2023-04-29T03:11:45;9.07;;;6.80;;
15049;SDS011;7622;42.724;23.250;2023-04-29T03:14:12;6.27;;;4.93;;
15049;SDS011;7622;42.724;23.250;2023-04-29T03:16:39;10.13;;;6.60;;
15049;SDS011;7622;42.724;23.250;2023-04-29T03:19:05;6.43;;;5.80;;
15049;SDS011;7622;42.724;23.250;2023-04-29T03:21:34;7.07;;;5.77;;
15049;SDS011;7622;42.724;23.250;2023-04-29T03:24:00;10.63;;;5.47;;
15049;SDS011;7622;42.724;23.250;2023-04-29T03:26:27;8.93;;;5.87;;
15049;SDS011;7622;42.724;23.250;2023-04-29T03:28:54;8.93;;;6.27;;
15049;SDS011;7622;42.724;23.250;2023-04-29T03:31:22;10.53;;;6.20;;
15049;SDS011;7622;42.724;23.250;2023-04-29T03:33:49;10.47;;;6.23;;
15049;SDS011;7622;42.724;23.250;2023-04-29T03:36:17;11.20;;;6.47;;
15049;SDS011;7622;42.724;23.250;2023-04-29T03:38:45;9.17;;;6.10;;
15049;SDS011;7622;42.724;23.250;2023-04-29T03:41:12;8.70;;;6.77;;
15049;SDS011;7622;42.724;23.250;2023-04-29T03:43:39;8.23;;;5.50;;
15049;SDS011;7622;42.724;23.250;2023-04-29T03:46:08;9.43;;;6.20;;
15049;SDS011;7622;42.724;23.250;2023-04-29T03:48:35;7.43;;;6.17;;
15049;SDS011;7622;42.724;23.250;2023-04-29T03:51:02;13.67;;;6.00;;
15049;SDS011;7622;42.724;23.250;2023-04-29T03:53:29;13.57;;;6.03;;
15049;SDS011;7622;42.724;23.250;2023-04-29T03:55:58;12.70;;;6.40;;
15049;SDS011;7622;42.724;23.250;2023-04-29T03:58:25;10.77;;;5.70;;
15049;SDS011;7622;42.724;23.250;2023-04-29T04:00:51;10.33;;;6.07;;
15049;SDS011;7622;42.724;23.250;2023-04-29T04:03:18;12.70;;;6.07;;
15049;SDS011;7622;42.724;23.250;2023-04-29T04:05:46;10.40;;;6.27;;
15049;SDS011;7622;42.724;23.250;2023-04-29T04:08:13;6.97;;;6.27;;
15049;SDS011;7622;42.724;23.250;2023-04-29T04:10:40;9.13;;;6.30;;
15049;SDS011;7622;42.724;23.250;2023-04-29T04:13:08;19.87;;;7.53;;
15049;SDS011;7622;42.724;23.250;2023-04-29T04:15:35;11.60;;;6.03;;
15049;SDS011;7622;42.724;23.250;2023-04-29T04:18:02;8.77;;;5.83;;
15049;SDS011;7622;42.724;23.250;2023-04-29T04:20:29;6.23;;;5.20;;
15049;SDS011;7622;42.724;23.250;2023-04-29T04:22:55;12.97;;;6.10;;
15049;SDS011;7622;42.724;23.250;2023-04-29T04:25:22;15.03;;;5.60;;
15049;SDS011;7622;42.724;23.250;2023-04-29T04:27:49;17.97;;;5.93;;
15049;SDS011;7622;42.724;23.250;2023-04-29T04:30:17;8.57;;;6.03;;
15049;SDS011;7622;42.724;23.250;2023-04-29T04:32:44;21.93;;;6.30;;
15049;SDS011;7622;42.724;23.250;2023-04-29T04:35:11;14.77;;;6.90;;
15049;SDS011;7622;42.724;23.250;2023-04-29T04:37:38;10.83;;;6.47;;
15049;SDS011;7622;42.724;23.250;2023-04-29T04:40:05;14.23;;;6.80;;
15049;SDS011;7622;42.724;23.250;2023-04-29T04:42:33;11.43;;;7.13;;
15049;SDS011;7622;42.724;23.250;2023-04-29T04:45:00;17.10;;;7.77;;
15049;SDS011;7622;42.724;23.250;2023-04-29T04:47:28;16.43;;;8.90;;
15049;SDS011;7622;42.724;23.250;2023-04-29T04:49:55;10.57;;;7.13;;
15049;SDS011;7622;42.724;23.250;2023-04-29T04:52:21;14.10;;;6.30;;
15049;SDS011;7622;42.724;23.250;2023-04-29T04:54:48;12.93;;;6.47;;
15049;SDS011;7622;42.724;23.250;2023-04-29T04:57:15;8.43;;;7.40;;
15049;SDS011;7622;42.724;23.250;2023-04-29T04:59:42;7.70;;;6.87;;
15049;SDS011;7622;42.724;23.250;2023-04-29T05:02:09;10.27;;;5.70;;
15049;SDS011;7622;42.724;23.250;2023-04-29T05:04:37;8.67;;;6.10;;
15049;SDS011;7622;42.724;23.250;2023-04-29T05:07:03;8.63;;;6.67;;
15049;SDS011;7622;42.724;23.250;2023-04-29T05:09:30;6.97;;;5.17;;
15049;SDS011;7622;42.724;23.250;2023-04-29T05:11:57;12.03;;;6.07;;
15049;SDS011;7622;42.724;23.250;2023-04-29T05:14:24;9.83;;;5.73;;
15049;SDS011;7622;42.724;23.250;2023-04-29T05:16:51;9.20;;;6.37;;
15049;SDS011;7622;42.724;23.250;2023-04-29T05:19:18;6.57;;;5.97;;
15049;SDS011;7622;42.724;23.250;2023-04-29T05:21:46;8.90;;;6.63;;
15049;SDS011;7622;42.724;23.250;2023-04-29T05:24:13;8.57;;;5.60;;
15049;SDS011;7622;42.724;23.250;2023-04-29T05:26:40;32.10;;;7.83;;
15049;SDS011;7622;42.724;23.250;2023-04-29T05:29:08;13.63;;;6.83;;
15049;SDS011;7622;42.724;23.250;2023-04-29T05:31:35;11.27;;;5.77;;
15049;SDS011;7622;42.724;23.250;2023-04-29T05:34:02;9.53;;;5.73;;
15049;SDS011;7622;42.724;23.250;2023-04-29T05:36:29;8.70;;;6.63;;
15049;SDS011;7622;42.724;23.250;2023-04-29T05:38:57;9.57;;;6.50;;
15049;SDS011;7622;42.724;23.250;2023-04-29T05:41:24;13.23;;;6.57;;
15049;SDS011;7622;42.724;23.250;2023-04-29T05:43:51;9.47;;;6.93;;
15049;SDS011;7622;42.724;23.250;2023-04-29T05:46:17;13.13;;;7.53;;
15049;SDS011;7622;42.724;23.250;2023-04-29T05:48:46;17.30;;;8.73;;
15049;SDS011;7622;42.724;23.250;2023-04-29T05:51:13;18.10;;;8.60;;
15049;SDS011;7622;42.724;23.250;2023-04-29T05:53:40;21.63;;;9.77;;
15049;SDS011;7622;42.724;23.250;2023-04-29T05:56:08;17.48;;;9.32;;
15049;SDS011;7622;42.724;23.250;2023-04-29T05:58:35;16.17;;;9.23;;
15049;SDS011;7622;42.724;23.250;2023-04-29T06:01:02;12.07;;;7.75;;
15049;SDS011;7622;42.724;23.250;2023-04-29T06:03:29;12.67;;;7.47;;
15049;SDS011;7622;42.724;23.250;2023-04-29T06:05:55;26.83;;;12.03;;
15049;SDS011;7622;42.724;23.250;2023-04-29T06:08:23;17.63;;;9.53;;
15049;SDS011;7622;42.724;23.250;2023-04-29T06:10:50;14.63;;;8.60;;
15049;SDS011;7622;42.724;23.250;2023-04-29T06:13:18;17.03;;;10.70;;
15049;SDS011;7622;42.724;23.250;2023-04-29T06:15:45;18.00;;;11.10;;
15049;SDS011;7622;42.724;23.250;2023-04-29T06:18:11;12.80;;;9.63;;
15049;SDS011;7622;42.724;23.250;2023-04-29T06:20:38;24.13;;;9.70;;
15049;SDS011;7622;42.724;23.250;2023-04-29T06:23:05;14.63;;;8.98;;
15049;SDS011;7622;42.724;23.250;2023-04-29T06:25:33;10.20;;;7.63;;
15049;SDS011;7622;42.724;23.250;2023-04-29T06:28:00;15.68;;;7.85;;
15049;SDS011;7622;42.724;23.250;2023-04-29T06:30:29;9.00;;;7.43;;
15049;SDS011;7622;42.724;23.250;2023-04-29T06:32:56;13.40;;;6.30;;
15049;SDS011;7622;42.724;23.250;2023-04-29T06:35:23;6.93;;;6.23;;
15049;SDS011;7622;42.724;23.250;2023-04-29T06:37:50;10.07;;;7.00;;
15049;SDS011;7622;42.724;23.250;2023-04-29T06:40:16;11.50;;;7.27;;
15049;SDS011;7622;42.724;23.250;2023-04-29T06:42:43;8.67;;;6.60;;
15049;SDS011;7622;42.724;23.250;2023-04-29T06:45:10;6.33;;;5.73;;
15049;SDS011;7622;42.724;23.250;2023-04-29T06:47:38;8.57;;;6.10;;
15049;SDS011;7622;42.724;23.250;2023-04-29T06:50:06;8.27;;;6.30;;
15049;SDS011;7622;42.724;23.250;2023-04-29T06:52:33;10.67;;;6.10;;
15049;SDS011;7622;42.724;23.250;2023-04-29T06:55:00;8.23;;;5.67;;
15049;SDS011;7622;42.724;23.250;2023-04-29T06:57:27;8.60;;;5.37;;
15049;SDS011;7622;42.724;23.250;2023-04-29T06:59:54;11.90;;;6.53;;
15049;SDS011;7622;42.724;23.250;2023-04-29T07:02:21;6.47;;;5.83;;
15049;SDS011;7622;42.724;23.250;2023-04-29T07:04:49;9.15;;;6.95;;
15049;SDS011;7622;42.724;23.250;2023-04-29T07:07:16;11.07;;;6.30;;
15049;SDS011;7622;42.724;23.250;2023-04-29T07:09:43;12.13;;;6.50;;
15049;SDS011;7622;42.724;23.250;2023-04-29T07:12:10;16.10;;;6.27;;
15049;SDS011;7622;42.724;23.250;2023-04-29T07:14:36;9.10;;;6.37;;
15049;SDS011;7622;42.724;23.250;2023-04-29T07:17:04;9.10;;;6.60;;
15049;SDS011;7622;42.724;23.250;2023-04-29T07:19:31;14.43;;;7.70;;
15049;SDS011;7622;42.724;23.250;2023-04-29T07:21:59;7.37;;;6.20;;
15049;SDS011;7622;42.724;23.250;2023-04-29T07:24:26;10.37;;;7.60;;
15049;SDS011;7622;42.724;23.250;2023-04-29T07:26:53;11.87;;;7.40;;
15049;SDS011;7622;42.724;23.250;2023-04-29T07:29:20;13.47;;;7.53;;
15049;SDS011;7622;42.724;23.250;2023-04-29T07:31:47;12.20;;;7.30;;
15049;SDS011;7622;42.724;23.250;2023-04-29T07:34:14;9.40;;;7.73;;
15049;SDS011;7622;42.724;23.250;2023-04-29T07:36:40;7.80;;;6.87;;
15049;SDS011;7622;42.724;23.250;2023-04-29T07:39:09;9.90;;;7.47;;
15049;SDS011;7622;42.724;23.250;2023-04-29T07:41:36;10.20;;;7.13;;
15049;SDS011;7622;42.724;23.250;2023-04-29T07:44:03;8.20;;;6.77;;
15049;SDS011;7622;42.724;23.250;2023-04-29T07:46:30;8.03;;;7.23;;
15049;SDS011;7622;42.724;23.250;2023-04-29T07:48:57;12.77;;;7.43;;
15049;SDS011;7622;42.724;23.250;2023-04-29T07:51:23;7.90;;;6.83;;
15049;SDS011;7622;42.724;23.250;2023-04-29T07:53:53;8.17;;;7.20;;
15049;SDS011;7622;42.724;23.250;2023-04-29T07:56:21;9.03;;;6.40;;
15049;SDS011;7622;42.724;23.250;2023-04-29T07:58:47;7.87;;;5.80;;
15049;SDS011;7622;42.724;23.250;2023-04-29T08:01:14;7.83;;;6.27;;
15049;SDS011;7622;42.724;23.250;2023-04-29T08:03:41;7.17;;;6.00;;
15049;SDS011;7622;42.724;23.250;2023-04-29T08:06:08;7.03;;;5.60;;
15049;SDS011;7622;42.724;23.250;2023-04-29T08:08:35;9.83;;;6.10;;
15049;SDS011;7622;42.724;23.250;2023-04-29T08:11:01;7.53;;;5.60;;
15049;SDS011;7622;42.724;23.250;2023-04-29T08:13:30;9.60;;;5.90;;
15049;SDS011;7622;42.724;23.250;2023-04-29T08:15:57;8.40;;;6.27;;
15049;SDS011;7622;42.724;23.250;2023-04-29T08:18:24;7.80;;;6.70;;
15049;SDS011;7622;42.724;23.250;2023-04-29T08:20:50;21.97;;;6.97;;
15049;SDS011;7622;42.724;23.250;2023-04-29T08:23:17;7.33;;;6.50;;
15049;SDS011;7622;42.724;23.250;2023-04-29T08:25:44;7.30;;;6.57;;
15049;SDS011;7622;42.724;23.250;2023-04-29T08:28:10;7.37;;;6.20;;
15049;SDS011;7622;42.724;23.250;2023-04-29T08:30:39;8.80;;;7.13;;
15049;SDS011;7622;42.724;23.250;2023-04-29T08:33:06;9.10;;;6.63;;
15049;SDS011;7622;42.724;23.250;2023-04-29T08:35:33;13.90;;;7.03;;
15049;SDS011;7622;42.724;23.250;2023-04-29T08:38:02;8.50;;;6.03;;
15049;SDS011;7622;42.724;23.250;2023-04-29T08:40:32;13.00;;;6.40;;
15049;SDS011;7622;42.724;23.250;2023-04-29T08:43:00;9.17;;;6.40;;
15049;SDS011;7622;42.724;23.250;2023-04-29T08:45:28;16.87;;;6.57;;
15049;SDS011;7622;42.724;23.250;2023-04-29T08:47:57;11.23;;;5.80;;
15049;SDS011;7622;42.724;23.250;2023-04-29T08:50:24;5.70;;;5.30;;
15049;SDS011;7622;42.724;23.250;2023-04-29T08:52:53;6.20;;;5.50;;
15049;SDS011;7622;42.724;23.250;2023-04-29T08:55:20;8.30;;;5.93;;
15049;SDS011;7622;42.724;23.250;2023-04-29T08:57:47;9.90;;;5.57;;
15049;SDS011;7622;42.724;23.250;2023-04-29T09:00:15;9.53;;;5.90;;
15049;SDS011;7622;42.724;23.250;2023-04-29T09:02:44;7.73;;;5.90;;
15049;SDS011;7622;42.724;23.250;2023-04-29T09:05:15;5.23;;;4.83;;
15049;SDS011;7622;42.724;23.250;2023-04-29T09:07:43;6.93;;;5.10;;
15049;SDS011;7622;42.724;23.250;2023-04-29T09:10:11;6.50;;;5.20;;
15049;SDS011;7622;42.724;23.250;2023-04-29T09:12:39;6.37;;;5.17;;
15049;SDS011;7622;42.724;23.250;2023-04-29T09:15:06;41.10;;;7.60;;
15049;SDS011;7622;42.724;23.250;2023-04-29T09:17:40;10.27;;;4.90;;
15049;SDS011;7622;42.724;23.250;2023-04-29T09:22:55;16.43;;;5.90;;
15049;SDS011;7622;42.724;23.250;2023-04-29T09:25:23;9.40;;;5.40;;
15049;SDS011;7622;42.724;23.250;2023-04-29T09:27:51;7.20;;;4.23;;
15049;SDS011;7622;42.724;23.250;2023-04-29T09:30:18;7.13;;;4.10;;
15049;SDS011;7622;42.724;23.250;2023-04-29T09:32:45;11.87;;;4.57;;
15049;SDS011;7622;42.724;23.250;2023-04-29T09:35:31;5.50;;;4.30;;
15049;SDS011;7622;42.724;23.250;2023-04-29T09:38:08;8.13;;;4.03;;
15049;SDS011;7622;42.724;23.250;2023-04-29T09:40:37;11.73;;;4.50;;
15049;SDS011;7622;42.724;23.250;2023-04-29T09:43:12;5.87;;;3.80;;
15049;SDS011;7622;42.724;23.250;2023-04-29T09:45:41;5.23;;;4.73;;
15049;SDS011;7622;42.724;23.250;2023-04-29T09:48:09;7.57;;;4.53;;
15049;SDS011;7622;42.724;23.250;2023-04-29T09:50:38;7.47;;;5.00;;
15049;SDS011;7622;42.724;23.250;2023-04-29T09:53:08;10.43;;;5.47;;
15049;SDS011;7622;42.724;23.250;2023-04-29T09:55:35;9.53;;;4.33;;
15049;SDS011;7622;42.724;23.250;2023-04-29T09:58:02;6.60;;;4.37;;
15049;SDS011;7622;42.724;23.250;2023-04-29T10:00:31;6.27;;;3.70;;
15049;SDS011;7622;42.724;23.250;2023-04-29T10:03:00;5.73;;;3.67;;
15049;SDS011;7622;42.724;23.250;2023-04-29T10:05:27;5.37;;;3.13;;
15049;SDS011;7622;42.724;23.250;2023-04-29T10:07:58;7.33;;;3.40;;
15049;SDS011;7622;42.724;23.250;2023-04-29T10:10:26;3.97;;;3.30;;
15049;SDS011;7622;42.724;23.250;2023-04-29T10:12:53;5.53;;;3.60;;
15049;SDS011;7622;42.724;23.250;2023-04-29T10:15:22;5.17;;;3.50;;
15049;SDS011;7622;42.724;23.250;2023-04-29T10:17:53;5.70;;;3.40;;
15049;SDS011;7622;42.724;23.250;2023-04-29T10:20:26;12.30;;;3.60;;
15049;SDS011;7622;42.724;23.250;2023-04-29T10:22:54;5.60;;;3.40;;
15049;SDS011;7622;42.724;23.250;2023-04-29T10:25:25;6.37;;;3.87;;
15049;SDS011;7622;42.724;23.250;2023-04-29T10:27:54;4.40;;;3.23;;
15049;SDS011;7622;42.724;23.250;2023-04-29T10:30:21;5.13;;;2.83;;
15049;SDS011;7622;42.724;23.250;2023-04-29T10:32:48;13.33;;;4.10;;
15049;SDS011;7622;42.724;23.250;2023-04-29T10:35:16;5.23;;;3.67;;
15049;SDS011;7622;42.724;23.250;2023-04-29T10:37:44;17.90;;;3.67;;
15049;SDS011;7622;42.724;23.250;2023-04-29T10:40:13;10.00;;;3.37;;
15049;SDS011;7622;42.724;23.250;2023-04-29T10:42:47;14.97;;;3.80;;
15049;SDS011;7622;42.724;23.250;2023-04-29T10:45:24;6.50;;;3.00;;
15049;SDS011;7622;42.724;23.250;2023-04-29T10:48:08;5.73;;;2.80;;
15049;SDS011;7622;42.724;23.250;2023-04-29T10:50:40;4.60;;;2.57;;
15049;SDS011;7622;42.724;23.250;2023-04-29T10:53:23;16.60;;;3.87;;
15049;SDS011;7622;42.724;23.250;2023-04-29T10:55:52;5.37;;;3.07;;
15049;SDS011;7622;42.724;23.250;2023-04-29T10:58:43;6.17;;;3.20;;
15049;SDS011;7622;42.724;23.250;2023-04-29T11:01:11;4.37;;;2.50;;
15049;SDS011;7622;42.724;23.250;2023-04-29T11:03:46;8.27;;;3.17;;
15049;SDS011;7622;42.724;23.250;2023-04-29T11:06:23;5.87;;;2.97;;
15049;SDS011;7622;42.724;23.250;2023-04-29T11:09:01;3.37;;;2.30;;
15049;SDS011;7622;42.724;23.250;2023-04-29T11:11:52;8.03;;;2.67;;
15049;SDS011;7622;42.724;23.250;2023-04-29T11:14:25;5.40;;;1.90;;
15049;SDS011;7622;42.724;23.250;2023-04-29T11:16:53;2.20;;;1.97;;
15049;SDS011;7622;42.724;23.250;2023-04-29T11:19:23;9.30;;;2.30;;
15049;SDS011;7622;42.724;23.250;2023-04-29T11:22:09;5.63;;;2.33;;
15049;SDS011;7622;42.724;23.250;2023-04-29T11:24:47;7.97;;;2.47;;
15049;SDS011;7622;42.724;23.250;2023-04-29T11:27:15;11.33;;;2.77;;
15049;SDS011;7622;42.724;23.250;2023-04-29T11:29:45;5.33;;;3.60;;
15049;SDS011;7622;42.724;23.250;2023-04-29T11:32:12;4.37;;;2.40;;
15049;SDS011;7622;42.724;23.250;2023-04-29T11:34:39;7.17;;;2.70;;
15049;SDS011;7622;42.724;23.250;2023-04-29T11:37:06;2.50;;;2.30;;
15049;SDS011;7622;42.724;23.250;2023-04-29T11:39:33;2.03;;;1.90;;
15049;SDS011;7622;42.724;23.250;2023-04-29T11:42:04;2.13;;;1.90;;
15049;SDS011;7622;42.724;23.250;2023-04-29T11:44:32;4.50;;;2.53;;
15049;SDS011;7622;42.724;23.250;2023-04-29T11:47:04;2.43;;;1.80;;
15049;SDS011;7622;42.724;23.250;2023-04-29T11:49:31;3.10;;;1.97;;
15049;SDS011;7622;42.724;23.250;2023-04-29T11:51:58;4.73;;;2.73;;
15049;SDS011;7622;42.724;23.250;2023-04-29T11:54:26;5.63;;;2.47;;
15049;SDS011;7622;42.724;23.250;2023-04-29T11:56:53;3.37;;;2.27;;
15049;SDS011;7622;42.724;23.250;2023-04-29T11:59:20;3.20;;;2.70;;
15049;SDS011;7622;42.724;23.250;2023-04-29T12:01:47;7.57;;;4.13;;
15049;SDS011;7622;42.724;23.250;2023-04-29T12:04:16;2.43;;;2.30;;
15049;SDS011;7622;42.724;23.250;2023-04-29T12:06:43;2.57;;;1.80;;
15049;SDS011;7622;42.724;23.250;2023-04-29T12:09:10;4.87;;;2.67;;
15049;SDS011;7622;42.724;23.250;2023-04-29T12:11:39;8.20;;;3.00;;
15049;SDS011;7622;42.724;23.250;2023-04-29T12:14:06;8.20;;;3.00;;
15049;SDS011;7622;42.724;23.250;2023-04-29T12:16:33;5.30;;;2.03;;
15049;SDS011;7622;42.724;23.250;2023-04-29T12:19:01;13.27;;;3.30;;
15049;SDS011;7622;42.724;23.250;2023-04-29T12:21:31;4.60;;;2.40;;
15049;SDS011;7622;42.724;23.250;2023-04-29T12:24:00;25.73;;;4.07;;
15049;SDS011;7622;42.724;23.250;2023-04-29T12:26:28;8.00;;;3.00;;
15049;SDS011;7622;42.724;23.250;2023-04-29T12:28:57;30.63;;;6.20;;
15049;SDS011;7622;42.724;23.250;2023-04-29T12:31:30;19.27;;;3.40;;
15049;SDS011;7622;42.724;23.250;2023-04-29T12:33:59;3.70;;;2.07;;
15049;SDS011;7622;42.724;23.250;2023-04-29T12:36:26;2.80;;;1.70;;
15049;SDS011;7622;42.724;23.250;2023-04-29T12:38:55;10.23;;;2.40;;
15049;SDS011;7622;42.724;23.250;2023-04-29T12:41:34;24.27;;;4.67;;
15049;SDS011;7622;42.724;23.250;2023-04-29T12:44:02;31.40;;;4.87;;
15049;SDS011;7622;42.724;23.250;2023-04-29T12:46:33;105.73;;;11.57;;
15049;SDS011;7622;42.724;23.250;2023-04-29T12:49:01;51.00;;;8.07;;
15049;SDS011;7622;42.724;23.250;2023-04-29T12:51:28;3.33;;;2.23;;
15049;SDS011;7622;42.724;23.250;2023-04-29T12:53:57;2.20;;;1.60;;
15049;SDS011;7622;42.724;23.250;2023-04-29T12:56:25;38.40;;;6.73;;
15049;SDS011;7622;42.724;23.250;2023-04-29T12:58:52;18.63;;;4.13;;
15049;SDS011;7622;42.724;23.250;2023-04-29T13:01:19;3.97;;;2.40;;
15049;SDS011;7622;42.724;23.250;2023-04-29T13:03:49;5.60;;;2.37;;
15049;SDS011;7622;42.724;23.250;2023-04-29T13:06:18;9.17;;;2.20;;
15049;SDS011;7622;42.724;23.250;2023-04-29T13:08:45;30.03;;;5.40;;
15049;SDS011;7622;42.724;23.250;2023-04-29T13:11:13;2.00;;;1.80;;
15049;SDS011;7622;42.724;23.250;2023-04-29T13:13:40;2.80;;;1.93;;
15049;SDS011;7622;42.724;23.250;2023-04-29T13:16:06;4.70;;;2.40;;
15049;SDS011;7622;42.724;23.250;2023-04-29T13:18:33;7.70;;;2.60;;
15049;SDS011;7622;42.724;23.250;2023-04-29T13:21:00;33.30;;;4.90;;
15049;SDS011;7622;42.724;23.250;2023-04-29T13:23:27;88.60;;;13.53;;
15049;SDS011;7622;42.724;23.250;2023-04-29T13:25:54;10.47;;;2.50;;
15049;SDS011;7622;42.724;23.250;2023-04-29T13:28:22;23.03;;;5.03;;
15049;SDS011;7622;42.724;23.250;2023-04-29T13:30:49;21.53;;;4.57;;
15049;SDS011;7622;42.724;23.250;2023-04-29T13:33:16;42.40;;;5.53;;
15049;SDS011;7622;42.724;23.250;2023-04-29T13:35:43;22.23;;;5.23;;
15049;SDS011;7622;42.724;23.250;2023-04-29T13:38:11;1.73;;;1.53;;
15049;SDS011;7622;42.724;23.250;2023-04-29T13:40:37;32.53;;;5.70;;
15049;SDS011;7622;42.724;23.250;2023-04-29T13:43:04;7.83;;;2.47;;
15049;SDS011;7622;42.724;23.250;2023-04-29T13:45:33;9.10;;;2.60;;
15049;SDS011;7622;42.724;23.250;2023-04-29T13:48:00;8.70;;;2.10;;
15049;SDS011;7622;42.724;23.250;2023-04-29T13:50:26;5.27;;;2.77;;
15049;SDS011;7622;42.724;23.250;2023-04-29T13:52:53;2.90;;;2.20;;
15049;SDS011;7622;42.724;23.250;2023-04-29T13:55:20;24.63;;;5.30;;
15049;SDS011;7622;42.724;23.250;2023-04-29T13:57:47;1.50;;;1.40;;
15049;SDS011;7622;42.724;23.250;2023-04-29T14:00:15;1.80;;;1.50;;
15049;SDS011;7622;42.724;23.250;2023-04-29T14:02:43;2.00;;;1.17;;
15049;SDS011;7622;42.724;23.250;2023-04-29T14:05:10;2.23;;;1.10;;
15049;SDS011;7622;42.724;23.250;2023-04-29T14:07:37;1.70;;;1.00;;
15049;SDS011;7622;42.724;23.250;2023-04-29T14:10:04;1.20;;;1.20;;
15049;SDS011;7622;42.724;23.250;2023-04-29T14:12:31;1.57;;;1.47;;
15049;SDS011;7622;42.724;23.250;2023-04-29T14:14:58;1.40;;;1.00;;
15049;SDS011;7622;42.724;23.250;2023-04-29T14:17:25;4.13;;;1.60;;
15049;SDS011;7622;42.724;23.250;2023-04-29T14:19:53;2.10;;;1.73;;
15049;SDS011;7622;42.724;23.250;2023-04-29T14:22:19;1.57;;;1.47;;
15049;SDS011;7622;42.724;23.250;2023-04-29T14:24:46;1.80;;;1.70;;
15049;SDS011;7622;42.724;23.250;2023-04-29T14:27:13;3.73;;;2.20;;
15049;SDS011;7622;42.724;23.250;2023-04-29T14:29:40;4.67;;;2.33;;
15049;SDS011;7622;42.724;23.250;2023-04-29T14:32:06;2.97;;;2.40;;
15049;SDS011;7622;42.724;23.250;2023-04-29T14:34:33;3.03;;;2.30;;
15049;SDS011;7622;42.724;23.250;2023-04-29T14:37:01;3.27;;;1.90;;
15049;SDS011;7622;42.724;23.250;2023-04-29T14:39:28;3.03;;;2.50;;
15049;SDS011;7622;42.724;23.250;2023-04-29T14:41:55;2.73;;;2.53;;
15049;SDS011;7622;42.724;23.250;2023-04-29T14:44:22;2.97;;;2.67;;
15049;SDS011;7622;42.724;23.250;2023-04-29T14:46:48;3.00;;;2.70;;
15049;SDS011;7622;42.724;23.250;2023-04-29T14:49:15;2.80;;;2.60;;
15049;SDS011;7622;42.724;23.250;2023-04-29T14:51:42;3.20;;;2.47;;